Beaver Creek, Minnesota
Current Conditions -  °F | °C
As of 6:54 AM on Thursday 23 Oct 2014 (Local Time) from KLYV Reporting Station
Moderate Fog Moderate Fog  
Wind Chill: 46°   Ceiling: 200
Heat Index: 46°   Visibility: 0.25mi
Dew Point: 46°   Wind: 3mph
Humidity: 100%   Direction: 200°SSW
Pressure: 30.02"   Gusts: NA
Location:  43.61°N, 96.36°W
Report Text: KLYV 231154Z AUTO 20003KT 1/4SM FG OVC002 08/08 A3002 RMK AO2
Loading
Personal Weather Stations






























Interactive Weather Map
Tropical Storm Tracking
New forecast layout! Learn more

10-Day Weather Forecast

Advertisements
Track Severe Weather on mobile